Terminal Aerodrome Forecast
Issued by NWS Jacksonville, FL

Current Version | Previous Version | Text Only | Print | Product List | Glossary On
Versions: 1 2 3 4 5 6 7 8 9 10 11 12 13 14 15 16 17 18 19 20 21 22 23 24 25 26 27 28 29 30 31 32 33 34 35 36 37 38
000
FTUS42 KJAX 040346 AAC
TAFGNV
TAF AMD
KGNV 040346Z 0404/0424 23008KT 6SM -TSRA BR SCT020CB BKN050
     FM040600 23008KT P6SM VCSH SCT015 BKN030 BKN250
     FM041000 21008KT P6SM SCT012 BKN030
     FM041600 25009KT P6SM VCTS BKN035CB BKN250=

USA.gov is the U.S. government's official web portal to all federal, state and local government web resources and services.